sensor_id;sensor_type;location;lat;lon;timestamp;temperature;humidity
23671;DHT22;12012;51.998;7.614;2022-10-16T00:02:05;12.90;98.40
23671;DHT22;12012;51.998;7.614;2022-10-16T00:04:30;12.90;98.30
23671;DHT22;12012;51.998;7.614;2022-10-16T00:06:56;12.90;98.80
23671;DHT22;12012;51.998;7.614;2022-10-16T00:09:22;12.90;99.60
23671;DHT22;12012;51.998;7.614;2022-10-16T00:11:47;12.90;99.20
23671;DHT22;12012;51.998;7.614;2022-10-16T00:14:14;12.90;98.60
23671;DHT22;12012;51.998;7.614;2022-10-16T00:16:40;12.90;99.90
23671;DHT22;12012;51.998;7.614;2022-10-16T00:19:06;12.90;99.90
23671;DHT22;12012;51.998;7.614;2022-10-16T00:21:33;12.90;99.90
23671;DHT22;12012;51.998;7.614;2022-10-16T00:24:02;12.90;99.90
23671;DHT22;12012;51.998;7.614;2022-10-16T00:26:29;13.00;99.90
23671;DHT22;12012;51.998;7.614;2022-10-16T00:28:55;12.90;99.90
23671;DHT22;12012;51.998;7.614;2022-10-16T00:31:22;12.90;99.90
23671;DHT22;12012;51.998;7.614;2022-10-16T00:33:49;12.90;99.90
23671;DHT22;12012;51.998;7.614;2022-10-16T00:36:17;13.00;99.90
23671;DHT22;12012;51.998;7.614;2022-10-16T00:38:43;12.90;99.90
23671;DHT22;12012;51.998;7.614;2022-10-16T00:41:12;12.90;99.90
23671;DHT22;12012;51.998;7.614;2022-10-16T00:43:51;12.90;99.90
23671;DHT22;12012;51.998;7.614;2022-10-16T00:46:25;12.90;99.90
23671;DHT22;12012;51.998;7.614;2022-10-16T00:49:14;12.90;99.90
23671;DHT22;12012;51.998;7.614;2022-10-16T00:51:45;12.90;99.90
23671;DHT22;12012;51.998;7.614;2022-10-16T00:54:15;12.90;99.90
23671;DHT22;12012;51.998;7.614;2022-10-16T00:56:43;12.90;99.90
23671;DHT22;12012;51.998;7.614;2022-10-16T00:59:19;12.90;99.90
23671;DHT22;12012;51.998;7.614;2022-10-16T01:01:45;12.90;99.90
23671;DHT22;12012;51.998;7.614;2022-10-16T01:04:11;12.90;99.90
23671;DHT22;12012;51.998;7.614;2022-10-16T01:06:48;12.90;99.90
23671;DHT22;12012;51.998;7.614;2022-10-16T01:12:14;12.90;99.90
23671;DHT22;12012;51.998;7.614;2022-10-16T01:15:07;12.90;99.90
23671;DHT22;12012;51.998;7.614;2022-10-16T01:17:43;12.90;99.90
23671;DHT22;12012;51.998;7.614;2022-10-16T01:20:29;12.80;99.90
23671;DHT22;12012;51.998;7.614;2022-10-16T01:23:15;12.80;99.90
23671;DHT22;12012;51.998;7.614;2022-10-16T01:25:49;12.80;99.90
23671;DHT22;12012;51.998;7.614;2022-10-16T01:28:19;12.80;99.90
23671;DHT22;12012;51.998;7.614;2022-10-16T01:30:47;12.80;99.90
23671;DHT22;12012;51.998;7.614;2022-10-16T01:33:30;12.80;99.90
23671;DHT22;12012;51.998;7.614;2022-10-16T01:36:06;12.70;99.90
23671;DHT22;12012;51.998;7.614;2022-10-16T01:38:37;12.70;99.90
23671;DHT22;12012;51.998;7.614;2022-10-16T01:41:17;12.70;99.90
23671;DHT22;12012;51.998;7.614;2022-10-16T01:46:25;12.60;99.90
23671;DHT22;12012;51.998;7.614;2022-10-16T01:48:52;12.70;99.90
23671;DHT22;12012;51.998;7.614;2022-10-16T01:51:19;12.60;99.90
23671;DHT22;12012;51.998;7.614;2022-10-16T01:53:50;12.60;99.90
23671;DHT22;12012;51.998;7.614;2022-10-16T01:56:18;12.60;99.90
23671;DHT22;12012;51.998;7.614;2022-10-16T01:58:53;12.60;99.90
23671;DHT22;12012;51.998;7.614;2022-10-16T02:01:20;12.60;99.90
23671;DHT22;12012;51.998;7.614;2022-10-16T02:03:50;12.60;99.90
23671;DHT22;12012;51.998;7.614;2022-10-16T02:06:16;12.60;99.90
23671;DHT22;12012;51.998;7.614;2022-10-16T02:08:42;12.60;99.90
23671;DHT22;12012;51.998;7.614;2022-10-16T02:11:10;12.60;99.90
23671;DHT22;12012;51.998;7.614;2022-10-16T02:16:01;12.50;99.90
23671;DHT22;12012;51.998;7.614;2022-10-16T02:18:27;12.50;99.90
23671;DHT22;12012;51.998;7.614;2022-10-16T02:21:02;12.50;99.90
23671;DHT22;12012;51.998;7.614;2022-10-16T02:23:57;12.50;99.90
23671;DHT22;12012;51.998;7.614;2022-10-16T02:26:34;12.50;99.90
23671;DHT22;12012;51.998;7.614;2022-10-16T02:29:04;12.40;99.90
23671;DHT22;12012;51.998;7.614;2022-10-16T02:31:32;12.40;99.90
23671;DHT22;12012;51.998;7.614;2022-10-16T02:34:00;12.40;99.90
23671;DHT22;12012;51.998;7.614;2022-10-16T02:36:27;12.40;99.90
23671;DHT22;12012;51.998;7.614;2022-10-16T02:38:54;12.40;99.90
23671;DHT22;12012;51.998;7.614;2022-10-16T02:41:21;12.40;99.90
23671;DHT22;12012;51.998;7.614;2022-10-16T02:43:47;12.40;99.90
23671;DHT22;12012;51.998;7.614;2022-10-16T02:46:12;12.40;99.90
23671;DHT22;12012;51.998;7.614;2022-10-16T02:48:38;12.40;99.90
23671;DHT22;12012;51.998;7.614;2022-10-16T02:51:04;12.30;99.90
23671;DHT22;12012;51.998;7.614;2022-10-16T02:53:30;12.40;99.90
23671;DHT22;12012;51.998;7.614;2022-10-16T02:55:56;12.30;99.90
23671;DHT22;12012;51.998;7.614;2022-10-16T02:58:21;12.30;99.90
23671;DHT22;12012;51.998;7.614;2022-10-16T03:00:47;12.30;99.90
23671;DHT22;12012;51.998;7.614;2022-10-16T03:03:12;12.30;99.90
23671;DHT22;12012;51.998;7.614;2022-10-16T03:05:38;12.30;99.90
23671;DHT22;12012;51.998;7.614;2022-10-16T03:08:03;12.30;99.90
23671;DHT22;12012;51.998;7.614;2022-10-16T03:10:30;12.30;99.90
23671;DHT22;12012;51.998;7.614;2022-10-16T03:12:55;12.30;99.90
23671;DHT22;12012;51.998;7.614;2022-10-16T03:15:21;12.30;99.90
23671;DHT22;12012;51.998;7.614;2022-10-16T03:17:46;12.40;99.90
23671;DHT22;12012;51.998;7.614;2022-10-16T03:20:12;12.40;99.90
23671;DHT22;12012;51.998;7.614;2022-10-16T03:22:37;12.40;99.90
23671;DHT22;12012;51.998;7.614;2022-10-16T03:25:03;12.40;99.90
23671;DHT22;12012;51.998;7.614;2022-10-16T03:27:29;12.40;99.90
23671;DHT22;12012;51.998;7.614;2022-10-16T03:29:55;12.40;99.90
23671;DHT22;12012;51.998;7.614;2022-10-16T03:32:20;12.50;99.90
23671;DHT22;12012;51.998;7.614;2022-10-16T03:34:46;12.40;99.90
23671;DHT22;12012;51.998;7.614;2022-10-16T03:37:12;12.40;99.90
23671;DHT22;12012;51.998;7.614;2022-10-16T03:39:38;12.40;99.90
23671;DHT22;12012;51.998;7.614;2022-10-16T03:42:03;12.40;99.90
23671;DHT22;12012;51.998;7.614;2022-10-16T03:44:29;12.40;99.90
23671;DHT22;12012;51.998;7.614;2022-10-16T03:46:54;12.40;99.90
23671;DHT22;12012;51.998;7.614;2022-10-16T03:49:20;12.40;99.90
23671;DHT22;12012;51.998;7.614;2022-10-16T03:51:45;12.40;99.90
23671;DHT22;12012;51.998;7.614;2022-10-16T03:54:11;12.40;99.90
23671;DHT22;12012;51.998;7.614;2022-10-16T03:56:37;12.40;99.90
23671;DHT22;12012;51.998;7.614;2022-10-16T03:59:03;12.40;99.90
23671;DHT22;12012;51.998;7.614;2022-10-16T04:01:28;12.40;99.90
23671;DHT22;12012;51.998;7.614;2022-10-16T04:03:54;12.40;99.90
23671;DHT22;12012;51.998;7.614;2022-10-16T04:06:19;12.40;99.90
23671;DHT22;12012;51.998;7.614;2022-10-16T04:08:45;12.40;99.90
23671;DHT22;12012;51.998;7.614;2022-10-16T04:11:11;12.40;99.90
23671;DHT22;12012;51.998;7.614;2022-10-16T04:13:36;12.40;99.90
23671;DHT22;12012;51.998;7.614;2022-10-16T04:16:02;12.40;99.90
23671;DHT22;12012;51.998;7.614;2022-10-16T04:18:27;12.40;99.90
23671;DHT22;12012;51.998;7.614;2022-10-16T04:20:54;12.40;99.90
23671;DHT22;12012;51.998;7.614;2022-10-16T04:23:20;12.40;99.90
23671;DHT22;12012;51.998;7.614;2022-10-16T04:25:46;12.40;99.90
23671;DHT22;12012;51.998;7.614;2022-10-16T04:28:12;12.40;99.90
23671;DHT22;12012;51.998;7.614;2022-10-16T04:30:38;12.40;99.90
23671;DHT22;12012;51.998;7.614;2022-10-16T04:33:04;12.40;99.90
23671;DHT22;12012;51.998;7.614;2022-10-16T04:35:30;12.40;99.90
23671;DHT22;12012;51.998;7.614;2022-10-16T04:37:57;12.40;99.90
23671;DHT22;12012;51.998;7.614;2022-10-16T04:40:23;12.40;99.90
23671;DHT22;12012;51.998;7.614;2022-10-16T04:42:48;12.40;99.90
23671;DHT22;12012;51.998;7.614;2022-10-16T04:45:14;12.40;99.90
23671;DHT22;12012;51.998;7.614;2022-10-16T04:47:40;12.40;99.90
23671;DHT22;12012;51.998;7.614;2022-10-16T04:50:06;12.40;99.90
23671;DHT22;12012;51.998;7.614;2022-10-16T04:52:32;12.40;99.90
23671;DHT22;12012;51.998;7.614;2022-10-16T04:54:58;12.50;99.90
23671;DHT22;12012;51.998;7.614;2022-10-16T04:57:26;12.40;99.90
23671;DHT22;12012;51.998;7.614;2022-10-16T04:59:52;12.50;99.90
23671;DHT22;12012;51.998;7.614;2022-10-16T05:02:18;12.50;99.90
23671;DHT22;12012;51.998;7.614;2022-10-16T05:04:43;12.50;99.90
23671;DHT22;12012;51.998;7.614;2022-10-16T05:07:09;12.50;99.90
23671;DHT22;12012;51.998;7.614;2022-10-16T05:09:34;12.50;99.90
23671;DHT22;12012;51.998;7.614;2022-10-16T05:12:00;12.60;99.90
23671;DHT22;12012;51.998;7.614;2022-10-16T05:14:26;12.60;99.90
23671;DHT22;12012;51.998;7.614;2022-10-16T05:16:51;12.60;99.90
23671;DHT22;12012;51.998;7.614;2022-10-16T05:19:17;12.60;99.90
23671;DHT22;12012;51.998;7.614;2022-10-16T05:21:43;12.60;99.90
23671;DHT22;12012;51.998;7.614;2022-10-16T05:24:08;12.70;99.90
23671;DHT22;12012;51.998;7.614;2022-10-16T05:26:34;12.60;99.90
23671;DHT22;12012;51.998;7.614;2022-10-16T05:29:00;12.70;99.90
23671;DHT22;12012;51.998;7.614;2022-10-16T05:31:26;12.70;99.90
23671;DHT22;12012;51.998;7.614;2022-10-16T05:33:51;12.70;99.90
23671;DHT22;12012;51.998;7.614;2022-10-16T05:36:17;12.70;99.90
23671;DHT22;12012;51.998;7.614;2022-10-16T05:38:43;12.70;99.90
23671;DHT22;12012;51.998;7.614;2022-10-16T05:41:09;12.80;99.90
23671;DHT22;12012;51.998;7.614;2022-10-16T05:43:34;12.80;99.90
23671;DHT22;12012;51.998;7.614;2022-10-16T05:46:05;12.80;99.90
23671;DHT22;12012;51.998;7.614;2022-10-16T05:48:31;12.80;99.90
23671;DHT22;12012;51.998;7.614;2022-10-16T05:51:02;12.80;99.90
23671;DHT22;12012;51.998;7.614;2022-10-16T05:53:29;12.80;99.90
23671;DHT22;12012;51.998;7.614;2022-10-16T05:55:56;12.80;99.90
23671;DHT22;12012;51.998;7.614;2022-10-16T05:58:22;12.80;99.90
23671;DHT22;12012;51.998;7.614;2022-10-16T06:01:01;12.80;99.90
23671;DHT22;12012;51.998;7.614;2022-10-16T06:03:27;12.80;99.90
23671;DHT22;12012;51.998;7.614;2022-10-16T06:05:53;12.80;99.90
23671;DHT22;12012;51.998;7.614;2022-10-16T06:08:20;12.80;99.90
23671;DHT22;12012;51.998;7.614;2022-10-16T06:10:46;12.80;99.90
23671;DHT22;12012;51.998;7.614;2022-10-16T06:13:13;12.80;99.90
23671;DHT22;12012;51.998;7.614;2022-10-16T06:15:40;12.80;99.90
23671;DHT22;12012;51.998;7.614;2022-10-16T06:18:07;12.70;99.90
23671;DHT22;12012;51.998;7.614;2022-10-16T06:20:34;12.70;99.90
23671;DHT22;12012;51.998;7.614;2022-10-16T06:22:59;12.70;99.90
23671;DHT22;12012;51.998;7.614;2022-10-16T06:25:25;12.70;99.90
23671;DHT22;12012;51.998;7.614;2022-10-16T06:27:50;12.70;99.90
23671;DHT22;12012;51.998;7.614;2022-10-16T06:30:16;12.70;99.90
23671;DHT22;12012;51.998;7.614;2022-10-16T06:32:41;12.70;99.90
23671;DHT22;12012;51.998;7.614;2022-10-16T06:35:07;12.70;99.90
23671;DHT22;12012;51.998;7.614;2022-10-16T06:37:32;12.70;99.90
23671;DHT22;12012;51.998;7.614;2022-10-16T06:39:58;12.80;99.90
23671;DHT22;12012;51.998;7.614;2022-10-16T06:42:25;12.80;99.90
23671;DHT22;12012;51.998;7.614;2022-10-16T06:44:50;12.80;99.90
23671;DHT22;12012;51.998;7.614;2022-10-16T06:47:16;12.80;99.90
23671;DHT22;12012;51.998;7.614;2022-10-16T06:49:42;12.90;99.90
23671;DHT22;12012;51.998;7.614;2022-10-16T06:52:07;12.90;99.90
23671;DHT22;12012;51.998;7.614;2022-10-16T06:54:33;12.90;99.90
23671;DHT22;12012;51.998;7.614;2022-10-16T06:56:58;12.90;99.90
23671;DHT22;12012;51.998;7.614;2022-10-16T06:59:25;12.90;99.70
23671;DHT22;12012;51.998;7.614;2022-10-16T07:01:50;13.00;99.60
23671;DHT22;12012;51.998;7.614;2022-10-16T07:04:16;13.10;99.60
23671;DHT22;12012;51.998;7.614;2022-10-16T07:06:42;13.20;99.60
23671;DHT22;12012;51.998;7.614;2022-10-16T07:09:09;13.30;99.30
23671;DHT22;12012;51.998;7.614;2022-10-16T07:11:37;13.40;99.00
23671;DHT22;12012;51.998;7.614;2022-10-16T07:14:03;13.30;98.30
23671;DHT22;12012;51.998;7.614;2022-10-16T07:16:31;13.40;98.20
23671;DHT22;12012;51.998;7.614;2022-10-16T07:18:59;13.50;98.10
23671;DHT22;12012;51.998;7.614;2022-10-16T07:21:30;13.50;98.30
23671;DHT22;12012;51.998;7.614;2022-10-16T07:23:59;13.60;97.90
23671;DHT22;12012;51.998;7.614;2022-10-16T07:26:26;13.60;97.10
23671;DHT22;12012;51.998;7.614;2022-10-16T07:28:52;13.50;97.00
23671;DHT22;12012;51.998;7.614;2022-10-16T07:31:19;13.50;96.70
23671;DHT22;12012;51.998;7.614;2022-10-16T07:33:45;13.50;96.60
23671;DHT22;12012;51.998;7.614;2022-10-16T07:36:12;13.50;96.90
23671;DHT22;12012;51.998;7.614;2022-10-16T07:38:38;13.50;97.10
23671;DHT22;12012;51.998;7.614;2022-10-16T07:41:09;13.60;97.50
23671;DHT22;12012;51.998;7.614;2022-10-16T07:43:34;13.80;97.40
23671;DHT22;12012;51.998;7.614;2022-10-16T07:46:00;14.00;96.60
23671;DHT22;12012;51.998;7.614;2022-10-16T07:48:28;14.10;96.70
23671;DHT22;12012;51.998;7.614;2022-10-16T07:50:59;14.40;96.50
23671;DHT22;12012;51.998;7.614;2022-10-16T07:53:25;14.50;95.10
23671;DHT22;12012;51.998;7.614;2022-10-16T07:55:51;14.70;93.60
23671;DHT22;12012;51.998;7.614;2022-10-16T07:58:17;15.00;94.30
23671;DHT22;12012;51.998;7.614;2022-10-16T08:00:42;15.20;93.10
23671;DHT22;12012;51.998;7.614;2022-10-16T08:03:08;15.40;90.40
23671;DHT22;12012;51.998;7.614;2022-10-16T08:05:34;15.50;91.50
23671;DHT22;12012;51.998;7.614;2022-10-16T08:08:01;15.70;88.80
23671;DHT22;12012;51.998;7.614;2022-10-16T08:10:28;15.90;79.10
23671;DHT22;12012;51.998;7.614;2022-10-16T08:12:54;16.10;79.10
23671;DHT22;12012;51.998;7.614;2022-10-16T08:15:20;16.20;75.00
23671;DHT22;12012;51.998;7.614;2022-10-16T08:17:55;16.40;68.40
23671;DHT22;12012;51.998;7.614;2022-10-16T08:20:20;16.60;67.70
23671;DHT22;12012;51.998;7.614;2022-10-16T08:22:46;16.70;56.90
23671;DHT22;12012;51.998;7.614;2022-10-16T08:25:11;16.80;54.30
23671;DHT22;12012;51.998;7.614;2022-10-16T08:27:37;17.00;52.30
23671;DHT22;12012;51.998;7.614;2022-10-16T08:30:03;17.10;45.10
23671;DHT22;12012;51.998;7.614;2022-10-16T08:32:28;17.20;35.60
23671;DHT22;12012;51.998;7.614;2022-10-16T08:34:54;17.40;35.60
23671;DHT22;12012;51.998;7.614;2022-10-16T08:37:20;17.50;42.30
23671;DHT22;12012;51.998;7.614;2022-10-16T08:39:46;17.70;35.40
23671;DHT22;12012;51.998;7.614;2022-10-16T08:45:14;18.00;20.30
23671;DHT22;12012;51.998;7.614;2022-10-16T08:50:28;18.30;1.00
23671;DHT22;12012;51.998;7.614;2022-10-16T08:52:55;18.50;1.00
23671;DHT22;12012;51.998;7.614;2022-10-16T08:57:46;18.80;1.00
23671;DHT22;12012;51.998;7.614;2022-10-16T09:00:13;19.00;1.00
23671;DHT22;12012;51.998;7.614;2022-10-16T09:03:07;19.20;1.00
23671;DHT22;12012;51.998;7.614;2022-10-16T09:13:54;19.90;1.00
23671;DHT22;12012;51.998;7.614;2022-10-16T09:16:35;20.10;1.00
23671;DHT22;12012;51.998;7.614;2022-10-16T09:21:40;20.40;99.90
23671;DHT22;12012;51.998;7.614;2022-10-16T09:24:15;20.50;51.20
23671;DHT22;12012;51.998;7.614;2022-10-16T09:26:42;20.60;99.90
23671;DHT22;12012;51.998;7.614;2022-10-16T09:29:14;20.70;99.90
23671;DHT22;12012;51.998;7.614;2022-10-16T09:31:40;20.80;99.90
23671;DHT22;12012;51.998;7.614;2022-10-16T09:34:23;21.00;99.90
23671;DHT22;12012;51.998;7.614;2022-10-16T09:36:51;21.20;99.90
23671;DHT22;12012;51.998;7.614;2022-10-16T09:39:16;21.20;99.90
23671;DHT22;12012;51.998;7.614;2022-10-16T09:41:44;21.30;99.90
23671;DHT22;12012;51.998;7.614;2022-10-16T09:44:21;21.40;99.90
23671;DHT22;12012;51.998;7.614;2022-10-16T09:47:01;21.50;99.90
23671;DHT22;12012;51.998;7.614;2022-10-16T09:49:27;21.40;99.90
23671;DHT22;12012;51.998;7.614;2022-10-16T09:52:13;21.30;99.90
23671;DHT22;12012;51.998;7.614;2022-10-16T09:57:15;21.20;99.90
23671;DHT22;12012;51.998;7.614;2022-10-16T09:59:54;21.10;99.90
23671;DHT22;12012;51.998;7.614;2022-10-16T10:02:35;20.90;99.90
23671;DHT22;12012;51.998;7.614;2022-10-16T10:05:01;20.60;99.90
23671;DHT22;12012;51.998;7.614;2022-10-16T10:07:31;20.60;99.90
23671;DHT22;12012;51.998;7.614;2022-10-16T10:10:02;20.60;99.90
23671;DHT22;12012;51.998;7.614;2022-10-16T10:12:30;20.80;99.90
23671;DHT22;12012;51.998;7.614;2022-10-16T10:15:03;20.90;99.90
23671;DHT22;12012;51.998;7.614;2022-10-16T10:17:29;21.20;99.90
23671;DHT22;12012;51.998;7.614;2022-10-16T10:19:58;21.50;99.90
23671;DHT22;12012;51.998;7.614;2022-10-16T10:25:26;21.90;99.90
23671;DHT22;12012;51.998;7.614;2022-10-16T10:30:54;22.00;99.90
23671;DHT22;12012;51.998;7.614;2022-10-16T10:33:44;22.20;99.90
23671;DHT22;12012;51.998;7.614;2022-10-16T10:39:16;22.70;99.90
23671;DHT22;12012;51.998;7.614;2022-10-16T10:50:33;24.10;99.90
23671;DHT22;12012;51.998;7.614;2022-10-16T10:57:09;25.00;90.40
23671;DHT22;12012;51.998;7.614;2022-10-16T11:07:04;27.10;42.00
23671;DHT22;12012;51.998;7.614;2022-10-16T11:09:36;27.70;29.70
23671;DHT22;12012;51.998;7.614;2022-10-16T11:12:19;28.30;25.00
23671;DHT22;12012;51.998;7.614;2022-10-16T11:14:50;29.60;19.00
23671;DHT22;12012;51.998;7.614;2022-10-16T11:17:23;30.60;11.90
23671;DHT22;12012;51.998;7.614;2022-10-16T11:22:38;32.00;1.00
23671;DHT22;12012;51.998;7.614;2022-10-16T11:25:25;32.60;1.00
23671;DHT22;12012;51.998;7.614;2022-10-16T11:33:47;32.50;1.00
23671;DHT22;12012;51.998;7.614;2022-10-16T11:36:19;33.10;1.00
23671;DHT22;12012;51.998;7.614;2022-10-16T11:38:58;33.20;1.00
23671;DHT22;12012;51.998;7.614;2022-10-16T11:44:34;33.30;1.00
23671;DHT22;12012;51.998;7.614;2022-10-16T11:49:32;33.70;1.00
23671;DHT22;12012;51.998;7.614;2022-10-16T11:54:59;34.00;1.00
23671;DHT22;12012;51.998;7.614;2022-10-16T11:57:31;32.30;1.00
23671;DHT22;12012;51.998;7.614;2022-10-16T12:02:50;29.20;1.00
23671;DHT22;12012;51.998;7.614;2022-10-16T12:05:55;28.40;1.00
23671;DHT22;12012;51.998;7.614;2022-10-16T12:08:24;27.00;1.00
23671;DHT22;12012;51.998;7.614;2022-10-16T12:10:50;25.70;1.00
23671;DHT22;12012;51.998;7.614;2022-10-16T12:16:20;26.90;1.00
23671;DHT22;12012;51.998;7.614;2022-10-16T12:18:47;25.80;1.00
23671;DHT22;12012;51.998;7.614;2022-10-16T12:21:14;25.20;1.00
23671;DHT22;12012;51.998;7.614;2022-10-16T12:23:55;24.90;1.00
23671;DHT22;12012;51.998;7.614;2022-10-16T12:26:33;24.90;1.00
23671;DHT22;12012;51.998;7.614;2022-10-16T12:31:49;23.70;1.00
23671;DHT22;12012;51.998;7.614;2022-10-16T12:34:37;23.20;1.00
23671;DHT22;12012;51.998;7.614;2022-10-16T12:39:35;25.50;1.00
23671;DHT22;12012;51.998;7.614;2022-10-16T12:42:04;26.60;1.00
23671;DHT22;12012;51.998;7.614;2022-10-16T12:44:35;28.00;1.00
23671;DHT22;12012;51.998;7.614;2022-10-16T12:47:01;29.10;1.00
23671;DHT22;12012;51.998;7.614;2022-10-16T12:49:37;30.00;1.00
23671;DHT22;12012;51.998;7.614;2022-10-16T12:52:04;29.70;1.00
23671;DHT22;12012;51.998;7.614;2022-10-16T12:54:37;28.80;1.00
23671;DHT22;12012;51.998;7.614;2022-10-16T13:02:15;28.30;1.00
23671;DHT22;12012;51.998;7.614;2022-10-16T13:21:59;29.90;1.00
23671;DHT22;12012;51.998;7.614;2022-10-16T13:27:43;31.20;1.00
23671;DHT22;12012;51.998;7.614;2022-10-16T13:30:21;31.60;1.00
23671;DHT22;12012;51.998;7.614;2022-10-16T13:32:49;32.00;1.00
23671;DHT22;12012;51.998;7.614;2022-10-16T13:35:27;32.40;1.00
23671;DHT22;12012;51.998;7.614;2022-10-16T13:43:14;32.80;1.00
23671;DHT22;12012;51.998;7.614;2022-10-16T13:45:39;32.00;1.00
23671;DHT22;12012;51.998;7.614;2022-10-16T13:48:08;31.30;1.00
23671;DHT22;12012;51.998;7.614;2022-10-16T13:50:35;30.50;1.00
23671;DHT22;12012;51.998;7.614;2022-10-16T13:53:10;30.00;1.00
23671;DHT22;12012;51.998;7.614;2022-10-16T13:55:38;29.80;1.00
23671;DHT22;12012;51.998;7.614;2022-10-16T13:58:14;29.60;1.00
23671;DHT22;12012;51.998;7.614;2022-10-16T14:00:41;29.30;1.00
23671;DHT22;12012;51.998;7.614;2022-10-16T14:03:18;29.20;1.00
23671;DHT22;12012;51.998;7.614;2022-10-16T14:06:00;29.10;1.00
23671;DHT22;12012;51.998;7.614;2022-10-16T14:08:27;29.00;1.00
23671;DHT22;12012;51.998;7.614;2022-10-16T14:10:56;29.00;1.00
23671;DHT22;12012;51.998;7.614;2022-10-16T14:13:32;28.90;1.00
23671;DHT22;12012;51.998;7.614;2022-10-16T14:16:05;28.70;1.00
23671;DHT22;12012;51.998;7.614;2022-10-16T14:18:31;28.30;1.00
23671;DHT22;12012;51.998;7.614;2022-10-16T14:21:06;27.80;1.00
23671;DHT22;12012;51.998;7.614;2022-10-16T14:23:37;27.30;1.00
23671;DHT22;12012;51.998;7.614;2022-10-16T14:28:36;25.90;1.00
23671;DHT22;12012;51.998;7.614;2022-10-16T14:31:24;25.30;1.00
23671;DHT22;12012;51.998;7.614;2022-10-16T14:33:50;24.70;1.00
23671;DHT22;12012;51.998;7.614;2022-10-16T14:36:16;24.10;1.00
23671;DHT22;12012;51.998;7.614;2022-10-16T14:39:05;23.50;1.00
23671;DHT22;12012;51.998;7.614;2022-10-16T14:41:32;23.00;1.00
23671;DHT22;12012;51.998;7.614;2022-10-16T14:44:06;22.60;1.00
23671;DHT22;12012;51.998;7.614;2022-10-16T14:46:36;22.20;1.00
23671;DHT22;12012;51.998;7.614;2022-10-16T14:51:34;21.70;1.00
23671;DHT22;12012;51.998;7.614;2022-10-16T14:54:00;21.50;1.00
23671;DHT22;12012;51.998;7.614;2022-10-16T14:56:31;21.30;1.00
23671;DHT22;12012;51.998;7.614;2022-10-16T14:58:58;21.10;1.00
23671;DHT22;12012;51.998;7.614;2022-10-16T15:01:23;20.90;1.00
23671;DHT22;12012;51.998;7.614;2022-10-16T15:03:49;20.70;1.00
23671;DHT22;12012;51.998;7.614;2022-10-16T15:06:16;20.60;1.00
23671;DHT22;12012;51.998;7.614;2022-10-16T15:08:41;20.50;1.00
23671;DHT22;12012;51.998;7.614;2022-10-16T15:11:13;20.40;1.00
23671;DHT22;12012;51.998;7.614;2022-10-16T15:13:39;20.40;1.00
23671;DHT22;12012;51.998;7.614;2022-10-16T15:16:07;20.30;1.00
23671;DHT22;12012;51.998;7.614;2022-10-16T15:18:33;20.30;1.00
23671;DHT22;12012;51.998;7.614;2022-10-16T15:20:59;20.20;1.00
23671;DHT22;12012;51.998;7.614;2022-10-16T15:23:24;20.00;1.00
23671;DHT22;12012;51.998;7.614;2022-10-16T15:25:52;20.00;1.00
23671;DHT22;12012;51.998;7.614;2022-10-16T15:28:19;19.90;1.00
23671;DHT22;12012;51.998;7.614;2022-10-16T15:30:46;19.80;1.00
23671;DHT22;12012;51.998;7.614;2022-10-16T15:33:25;19.70;1.00
23671;DHT22;12012;51.998;7.614;2022-10-16T15:35:58;19.60;1.00
23671;DHT22;12012;51.998;7.614;2022-10-16T15:38:24;19.50;1.00
23671;DHT22;12012;51.998;7.614;2022-10-16T15:40:50;19.50;1.00
23671;DHT22;12012;51.998;7.614;2022-10-16T15:43:16;19.40;1.00
23671;DHT22;12012;51.998;7.614;2022-10-16T15:45:42;19.30;1.00
23671;DHT22;12012;51.998;7.614;2022-10-16T15:48:11;19.30;1.00
23671;DHT22;12012;51.998;7.614;2022-10-16T15:50:38;19.20;1.00
23671;DHT22;12012;51.998;7.614;2022-10-16T15:53:04;19.10;1.00
23671;DHT22;12012;51.998;7.614;2022-10-16T15:55:29;19.10;1.00
23671;DHT22;12012;51.998;7.614;2022-10-16T15:57:55;19.00;1.00
23671;DHT22;12012;51.998;7.614;2022-10-16T16:00:21;19.00;1.00
23671;DHT22;12012;51.998;7.614;2022-10-16T16:02:51;18.90;1.00
23671;DHT22;12012;51.998;7.614;2022-10-16T16:05:18;18.80;1.00
23671;DHT22;12012;51.998;7.614;2022-10-16T16:07:44;18.80;1.00
23671;DHT22;12012;51.998;7.614;2022-10-16T16:10:10;18.70;1.00
23671;DHT22;12012;51.998;7.614;2022-10-16T16:12:37;18.60;1.00
23671;DHT22;12012;51.998;7.614;2022-10-16T16:15:04;18.60;1.60
23671;DHT22;12012;51.998;7.614;2022-10-16T16:17:31;18.50;2.10
23671;DHT22;12012;51.998;7.614;2022-10-16T16:19:56;18.40;2.00
23671;DHT22;12012;51.998;7.614;2022-10-16T16:22:22;18.40;4.30
23671;DHT22;12012;51.998;7.614;2022-10-16T16:24:48;18.30;5.70
23671;DHT22;12012;51.998;7.614;2022-10-16T16:27:13;18.30;7.60
23671;DHT22;12012;51.998;7.614;2022-10-16T16:29:39;18.20;10.80
23671;DHT22;12012;51.998;7.614;2022-10-16T16:32:05;18.10;13.40
23671;DHT22;12012;51.998;7.614;2022-10-16T16:34:30;18.00;16.90
23671;DHT22;12012;51.998;7.614;2022-10-16T16:36:56;17.90;20.20
23671;DHT22;12012;51.998;7.614;2022-10-16T16:39:22;17.90;24.90
23671;DHT22;12012;51.998;7.614;2022-10-16T16:41:48;17.70;29.70
23671;DHT22;12012;51.998;7.614;2022-10-16T16:44:15;17.70;40.20
23671;DHT22;12012;51.998;7.614;2022-10-16T16:46:41;17.60;46.10
23671;DHT22;12012;51.998;7.614;2022-10-16T16:49:10;17.50;52.60
23671;DHT22;12012;51.998;7.614;2022-10-16T16:51:36;17.40;71.70
23671;DHT22;12012;51.998;7.614;2022-10-16T16:54:02;17.30;75.00
23671;DHT22;12012;51.998;7.614;2022-10-16T16:56:27;17.20;85.10
23671;DHT22;12012;51.998;7.614;2022-10-16T16:58:54;17.10;96.40
23671;DHT22;12012;51.998;7.614;2022-10-16T17:01:22;17.00;99.90
23671;DHT22;12012;51.998;7.614;2022-10-16T17:03:50;16.90;99.90
23671;DHT22;12012;51.998;7.614;2022-10-16T17:06:18;16.80;99.90
23671;DHT22;12012;51.998;7.614;2022-10-16T17:08:44;16.70;99.90
23671;DHT22;12012;51.998;7.614;2022-10-16T17:11:15;16.70;99.90
23671;DHT22;12012;51.998;7.614;2022-10-16T17:13:41;16.60;99.90
23671;DHT22;12012;51.998;7.614;2022-10-16T17:16:08;16.50;99.90
23671;DHT22;12012;51.998;7.614;2022-10-16T17:18:33;16.40;99.90
23671;DHT22;12012;51.998;7.614;2022-10-16T17:21:01;16.40;99.90
23671;DHT22;12012;51.998;7.614;2022-10-16T17:23:26;16.30;99.90
23671;DHT22;12012;51.998;7.614;2022-10-16T17:25:53;16.30;99.90
23671;DHT22;12012;51.998;7.614;2022-10-16T17:28:18;16.20;99.90
23671;DHT22;12012;51.998;7.614;2022-10-16T17:30:44;16.10;99.90
23671;DHT22;12012;51.998;7.614;2022-10-16T17:33:11;16.10;99.90
23671;DHT22;12012;51.998;7.614;2022-10-16T17:35:45;16.10;99.90
23671;DHT22;12012;51.998;7.614;2022-10-16T17:38:12;16.00;99.90
23671;DHT22;12012;51.998;7.614;2022-10-16T17:40:39;16.00;99.90
23671;DHT22;12012;51.998;7.614;2022-10-16T17:43:05;15.90;99.90
23671;DHT22;12012;51.998;7.614;2022-10-16T17:45:30;15.90;99.90
23671;DHT22;12012;51.998;7.614;2022-10-16T17:47:58;15.90;99.90